createdAt,value
2016-09-28T00:00:04.846Z,15.03
2016-09-28T00:00:26.577Z,14.96
2016-09-28T00:00:48.328Z,14.99
2016-09-28T00:01:10.053Z,15.04
2016-09-28T00:01:31.791Z,15.06
2016-09-28T00:01:53.528Z,15.09
2016-09-28T00:02:15.249Z,15.12
2016-09-28T00:02:36.990Z,15.11
2016-09-28T00:02:58.725Z,15.18
2016-09-28T00:03:20.442Z,15.26
2016-09-28T00:03:42.171Z,15.34
2016-09-28T00:04:08.660Z,15.42
2016-09-28T00:04:30.385Z,15.46
2016-09-28T00:04:52.113Z,15.47
2016-09-28T00:05:18.616Z,15.54
2016-09-28T00:05:40.334Z,15.60
2016-09-28T00:06:02.055Z,15.57
2016-09-28T00:06:23.793Z,15.48
2016-09-28T00:06:45.550Z,15.45
2016-09-28T00:07:07.301Z,15.39
2016-09-28T00:07:29.013Z,15.33
2016-09-28T00:07:50.743Z,15.27
2016-09-28T00:08:12.459Z,15.28
2016-09-28T00:08:34.190Z,15.18
2016-09-28T00:08:55.912Z,15.15
2016-09-28T00:09:17.636Z,15.17
2016-09-28T00:09:39.361Z,15.12
2016-09-28T00:10:01.095Z,15.12
2016-09-28T00:10:22.824Z,15.08
2016-09-28T00:10:44.573Z,15.02
2016-09-28T00:11:06.289Z,15.01
2016-09-28T00:11:28.017Z,15.04
2016-09-28T00:11:49.749Z,15.12
2016-09-28T00:12:11.489Z,15.18
2016-09-28T00:12:33.209Z,15.20
2016-09-28T00:12:54.936Z,15.20
2016-09-28T00:13:16.656Z,15.18
2016-09-28T00:13:38.379Z,15.18
2016-09-28T00:14:00.105Z,15.18
2016-09-28T00:14:21.818Z,15.27
2016-09-28T00:14:43.522Z,15.42
2016-09-28T00:15:05.253Z,15.43
2016-09-28T00:15:26.980Z,15.36
2016-09-28T00:15:48.708Z,15.39
2016-09-28T00:16:15.208Z,15.40
2016-09-28T00:16:36.936Z,15.43
2016-09-28T00:16:58.654Z,15.51
2016-09-28T00:17:20.373Z,15.45
2016-09-28T00:17:42.103Z,15.47
2016-09-28T00:18:03.822Z,15.41
2016-09-28T00:18:25.540Z,15.44
2016-09-28T00:18:52.245Z,15.36
2016-09-28T00:19:13.963Z,15.38
2016-09-28T00:19:35.691Z,15.44
2016-09-28T00:19:57.409Z,15.41
2016-09-28T00:20:19.128Z,15.46
2016-09-28T00:20:40.849Z,15.49
2016-09-28T00:21:03.579Z,15.49
2016-09-28T00:21:26.306Z,15.49
2016-09-28T00:21:48.107Z,15.55
2016-09-28T00:22:09.828Z,15.58
2016-09-28T00:22:34.365Z,15.33
2016-09-28T00:22:56.091Z,15.33
2016-09-28T00:23:17.810Z,15.27
2016-09-28T00:23:39.531Z,15.23
2016-09-28T00:24:01.259Z,15.13
2016-09-28T00:24:27.751Z,15.06
2016-09-28T00:24:49.473Z,14.99
2016-09-28T00:25:11.202Z,14.94
2016-09-28T00:25:32.919Z,14.93
2016-09-28T00:25:54.648Z,14.97
2016-09-28T00:26:16.363Z,14.91
2016-09-28T00:26:38.091Z,14.91
2016-09-28T00:26:59.819Z,14.87
2016-09-28T00:27:26.312Z,14.76
2016-09-28T00:27:48.037Z,14.79
2016-09-28T00:28:09.761Z,14.85
2016-09-28T00:28:31.489Z,14.89
2016-09-28T00:28:53.220Z,14.85
2016-09-28T00:29:15.015Z,14.80
2016-09-28T00:29:36.733Z,14.79
2016-09-28T00:29:58.468Z,14.73
2016-09-28T00:30:20.199Z,14.73
2016-09-28T00:30:41.928Z,14.72
2016-09-28T00:31:03.662Z,14.78
2016-09-28T00:31:25.380Z,14.76
2016-09-28T00:31:47.118Z,14.80
2016-09-28T00:32:08.837Z,14.82
2016-09-28T00:32:30.561Z,14.91
2016-09-28T00:32:52.283Z,14.92
2016-09-28T00:33:14.011Z,14.95
2016-09-28T00:33:35.726Z,15.03
2016-09-28T00:33:57.454Z,15.09
2016-09-28T00:34:19.182Z,15.07
2016-09-28T00:34:40.901Z,15.05
2016-09-28T00:35:02.625Z,15.08
2016-09-28T00:35:24.357Z,15.11
2016-09-28T00:35:46.093Z,15.10
2016-09-28T00:36:07.825Z,15.11
2016-09-28T00:36:29.553Z,15.12
2016-09-28T00:36:51.290Z,15.17
2016-09-28T00:37:13.021Z,15.12
2016-09-28T00:37:34.743Z,15.13
2016-09-28T00:37:56.465Z,15.12
2016-09-28T00:38:18.193Z,15.11
2016-09-28T00:38:39.912Z,15.14
2016-09-28T00:39:01.643Z,15.18
2016-09-28T00:39:23.379Z,15.18
2016-09-28T00:39:45.101Z,15.20
2016-09-28T00:40:06.820Z,15.19
2016-09-28T00:40:28.539Z,15.25
2016-09-28T00:40:50.251Z,15.15
2016-09-28T00:41:11.968Z,15.06
2016-09-28T00:41:33.693Z,14.98
2016-09-28T00:41:55.416Z,14.95
2016-09-28T00:42:17.134Z,14.93
2016-09-28T00:42:38.858Z,14.93
2016-09-28T00:43:00.590Z,14.91
2016-09-28T00:43:22.307Z,14.97
2016-09-28T00:43:44.038Z,14.93
2016-09-28T00:44:05.761Z,14.99
2016-09-28T00:44:27.486Z,14.98
2016-09-28T00:44:49.203Z,14.89
2016-09-28T00:45:10.948Z,14.84
2016-09-28T00:45:32.670Z,14.76
2016-09-28T00:45:54.398Z,14.76
2016-09-28T00:46:16.113Z,14.79
2016-09-28T00:46:37.831Z,14.82
2016-09-28T00:46:59.563Z,14.87
2016-09-28T00:47:21.291Z,14.81
2016-09-28T00:47:43.019Z,14.84
2016-09-28T00:48:04.742Z,14.91
2016-09-28T00:48:26.464Z,14.98
2016-09-28T00:48:48.177Z,15.04
2016-09-28T00:49:09.975Z,15.10
2016-09-28T00:49:36.493Z,15.00
2016-09-28T00:49:58.212Z,14.96
2016-09-28T00:50:19.985Z,15.03
2016-09-28T00:50:41.720Z,15.11
2016-09-28T00:51:03.449Z,15.23
2016-09-28T00:51:25.169Z,15.26
2016-09-28T00:51:46.891Z,15.31
2016-09-28T00:52:13.383Z,15.24
2016-09-28T00:52:35.095Z,15.25
2016-09-28T00:52:56.821Z,15.30
2016-09-28T00:53:18.535Z,15.30
2016-09-28T00:53:40.251Z,15.32
2016-09-28T00:54:01.969Z,15.37
2016-09-28T00:54:23.697Z,15.37
2016-09-28T00:54:45.415Z,15.39
2016-09-28T00:55:07.146Z,15.39
2016-09-28T00:55:28.954Z,15.39
2016-09-28T00:55:50.685Z,15.28
2016-09-28T00:56:12.414Z,15.21
2016-09-28T00:56:34.135Z,15.24
2016-09-28T00:56:55.857Z,15.27
2016-09-28T00:57:17.589Z,15.31
2016-09-28T00:57:39.312Z,15.36
2016-09-28T00:58:01.048Z,15.42
2016-09-28T00:58:22.759Z,15.42
2016-09-28T00:58:44.478Z,15.36
2016-09-28T00:59:06.214Z,15.38
2016-09-28T00:59:27.931Z,15.45
2016-09-28T00:59:49.646Z,15.44
2016-09-28T01:00:11.374Z,15.41
2016-09-28T01:00:33.103Z,15.45
2016-09-28T01:01:21.319Z,15.36
2016-09-28T01:01:43.044Z,15.32
2016-09-28T01:02:04.775Z,15.36
2016-09-28T01:02:26.501Z,15.41
2016-09-28T01:02:48.215Z,15.41
2016-09-28T01:03:09.943Z,15.45
2016-09-28T01:03:31.677Z,15.52
2016-09-28T01:03:53.399Z,15.47
2016-09-28T01:04:15.118Z,15.46
2016-09-28T01:04:36.839Z,15.46
2016-09-28T01:04:58.573Z,15.44
2016-09-28T01:05:20.299Z,15.38
2016-09-28T01:05:42.019Z,15.28
2016-09-28T01:06:03.751Z,15.28
2016-09-28T01:06:25.476Z,15.27
2016-09-28T01:06:47.207Z,15.19
2016-09-28T01:07:08.931Z,15.16
2016-09-28T01:07:30.656Z,15.15
2016-09-28T01:07:52.374Z,15.19
2016-09-28T01:08:14.106Z,15.29
2016-09-28T01:08:35.821Z,15.36
2016-09-28T01:08:57.542Z,15.36
2016-09-28T01:09:19.280Z,15.33
2016-09-28T01:09:41.005Z,15.24
2016-09-28T01:10:02.729Z,15.25
2016-09-28T01:10:29.231Z,15.09
2016-09-28T01:10:50.950Z,15.06
2016-09-28T01:11:12.669Z,15.02
2016-09-28T01:11:34.400Z,14.98
2016-09-28T01:12:00.905Z,15.05
2016-09-28T01:12:22.630Z,15.08
2016-09-28T01:12:44.349Z,15.05
2016-09-28T01:13:06.086Z,15.04
2016-09-28T01:13:27.804Z,15.02
2016-09-28T01:13:49.545Z,15.02
2016-09-28T01:14:11.311Z,15.08
2016-09-28T01:14:33.027Z,15.13
2016-09-28T01:14:54.759Z,15.09
2016-09-28T01:15:21.267Z,15.04
2016-09-28T01:15:42.992Z,15.03
2016-09-28T01:16:04.713Z,15.06
2016-09-28T01:16:26.435Z,15.04
2016-09-28T01:16:48.159Z,15.04
2016-09-28T01:17:09.887Z,14.99
2016-09-28T01:17:31.626Z,14.95
2016-09-28T01:17:53.344Z,15.01
2016-09-28T01:18:19.843Z,14.97
2016-09-28T01:18:41.565Z,15.02
2016-09-28T01:19:03.288Z,15.02
2016-09-28T01:19:25.004Z,15.04
2016-09-28T01:19:46.732Z,15.02
2016-09-28T01:20:08.450Z,14.98
2016-09-28T01:20:30.175Z,14.87
2016-09-28T01:20:51.899Z,14.86
2016-09-28T01:21:18.392Z,14.92
2016-09-28T01:21:40.111Z,14.92
2016-09-28T01:22:01.836Z,14.87
2016-09-28T01:22:23.554Z,14.91
2016-09-28T01:22:45.273Z,14.96
2016-09-28T01:23:11.771Z,15.01
2016-09-28T01:23:33.486Z,14.98
2016-09-28T01:23:55.215Z,15.07
2016-09-28T01:24:16.933Z,15.16
2016-09-28T01:24:38.649Z,15.17
2016-09-28T01:25:00.363Z,15.12
2016-09-28T01:25:22.092Z,15.16
2016-09-28T01:25:43.813Z,15.21
2016-09-28T01:26:05.532Z,15.13
2016-09-28T01:26:27.249Z,15.00
2016-09-28T01:26:48.978Z,14.84
2016-09-28T01:27:10.690Z,14.78
2016-09-28T01:27:32.440Z,14.76
2016-09-28T01:27:54.162Z,14.79
2016-09-28T01:28:15.886Z,14.78
2016-09-28T01:28:37.612Z,14.76
2016-09-28T01:28:59.336Z,14.78
2016-09-28T01:29:21.061Z,14.80
2016-09-28T01:29:42.775Z,14.80
2016-09-28T01:30:04.501Z,14.82
2016-09-28T01:30:26.223Z,14.93
2016-09-28T01:30:47.951Z,14.87
2016-09-28T01:31:10.673Z,14.92
2016-09-28T01:31:32.393Z,15.02
2016-09-28T01:31:58.882Z,15.05
2016-09-28T01:32:20.597Z,15.03
2016-09-28T01:32:42.321Z,14.99
2016-09-28T01:33:04.044Z,14.91
2016-09-28T01:33:25.758Z,14.85
2016-09-28T01:33:47.484Z,14.80
2016-09-28T01:34:09.202Z,14.81
2016-09-28T01:34:30.919Z,14.79
2016-09-28T01:34:52.642Z,14.77
2016-09-28T01:35:14.365Z,14.80
2016-09-28T01:35:36.082Z,14.86
2016-09-28T01:35:57.812Z,14.89
2016-09-28T01:36:19.538Z,14.91
2016-09-28T01:36:41.260Z,14.90
2016-09-28T01:37:02.978Z,14.89
2016-09-28T01:37:24.693Z,14.91
2016-09-28T01:37:46.414Z,14.94
2016-09-28T01:38:08.135Z,15.00
2016-09-28T01:38:29.863Z,14.97
2016-09-28T01:38:51.593Z,14.99
2016-09-28T01:39:13.399Z,15.02
2016-09-28T01:39:35.121Z,14.98
2016-09-28T01:39:56.840Z,15.03
2016-09-28T01:40:18.565Z,15.02
2016-09-28T01:40:40.280Z,14.99
2016-09-28T01:41:06.782Z,15.00
2016-09-28T01:41:28.514Z,15.03
2016-09-28T01:41:50.228Z,15.07
2016-09-28T01:42:11.951Z,15.10
2016-09-28T01:42:33.665Z,15.04
2016-09-28T01:43:00.261Z,15.07
2016-09-28T01:43:21.886Z,15.00
2016-09-28T01:43:43.601Z,15.00
2016-09-28T01:44:05.329Z,15.00
2016-09-28T01:44:27.106Z,15.09
2016-09-28T01:44:48.824Z,15.02
2016-09-28T01:45:10.549Z,15.05
2016-09-28T01:45:32.267Z,15.03
2016-09-28T01:45:53.982Z,15.08
2016-09-28T01:46:15.701Z,15.04
2016-09-28T01:46:37.423Z,15.09
2016-09-28T01:46:59.131Z,15.12
2016-09-28T01:47:20.845Z,15.11
2016-09-28T01:47:42.567Z,15.07
2016-09-28T01:48:04.299Z,15.05
2016-09-28T01:48:26.088Z,15.03
2016-09-28T01:48:47.808Z,14.97
2016-09-28T01:49:09.525Z,14.91
2016-09-28T01:49:31.255Z,14.91
2016-09-28T01:49:52.971Z,14.95
2016-09-28T01:50:14.683Z,14.96
2016-09-28T01:50:36.408Z,15.00
2016-09-28T01:50:58.132Z,15.02
2016-09-28T01:51:19.861Z,15.09
2016-09-28T01:51:41.579Z,15.14
2016-09-28T01:52:03.313Z,15.15
2016-09-28T01:52:25.028Z,15.11
2016-09-28T01:52:46.750Z,15.16
2016-09-28T01:53:08.478Z,15.20
2016-09-28T01:53:30.289Z,15.19
2016-09-28T01:53:52.008Z,15.11
2016-09-28T01:54:13.729Z,15.11
2016-09-28T01:54:35.454Z,15.15
2016-09-28T01:54:57.172Z,15.17
2016-09-28T01:55:18.897Z,15.15
2016-09-28T01:55:40.618Z,15.17
2016-09-28T01:56:02.341Z,15.11
2016-09-28T01:56:28.827Z,15.14
2016-09-28T01:56:50.560Z,15.19
2016-09-28T01:57:12.295Z,15.30
2016-09-28T01:57:34.007Z,15.24
2016-09-28T01:57:55.726Z,15.23
2016-09-28T01:58:17.448Z,15.12
2016-09-28T01:58:39.169Z,15.06
2016-09-28T01:59:00.880Z,15.06
2016-09-28T01:59:22.602Z,15.11
2016-09-28T01:59:49.159Z,15.17
2016-09-28T02:00:10.880Z,15.09
2016-09-28T02:00:32.606Z,15.12
2016-09-28T02:00:56.555Z,15.17
2016-09-28T02:01:18.279Z,15.19
2016-09-28T02:01:39.991Z,15.19
2016-09-28T02:02:01.716Z,15.23
2016-09-28T02:02:23.428Z,15.15
2016-09-28T02:02:45.240Z,15.05
2016-09-28T02:03:06.974Z,15.03
2016-09-28T02:03:28.698Z,15.19
2016-09-28T02:03:50.417Z,15.12
2016-09-28T02:04:12.138Z,15.05
2016-09-28T02:04:33.857Z,15.09
2016-09-28T02:04:55.569Z,15.03
2016-09-28T02:05:17.281Z,15.10
2016-09-28T02:05:39.003Z,15.09
2016-09-28T02:06:00.724Z,15.09
2016-09-28T02:06:22.439Z,15.07
2016-09-28T02:06:44.237Z,15.06
2016-09-28T02:07:05.952Z,15.06
2016-09-28T02:07:27.665Z,15.05
2016-09-28T02:07:49.383Z,15.10
2016-09-28T02:08:11.110Z,15.09
2016-09-28T02:08:32.838Z,15.09
2016-09-28T02:08:54.555Z,15.16
2016-09-28T02:09:16.279Z,15.12
2016-09-28T02:09:37.999Z,15.14
2016-09-28T02:09:59.728Z,15.04
2016-09-28T02:10:21.456Z,15.01
2016-09-28T02:10:43.181Z,15.09
2016-09-28T02:11:04.893Z,15.11
2016-09-28T02:11:26.601Z,15.07
2016-09-28T02:11:48.397Z,15.05
2016-09-28T02:12:10.122Z,15.03
2016-09-28T02:12:31.847Z,14.93
2016-09-28T02:12:53.556Z,14.97
2016-09-28T02:13:15.277Z,14.97
2016-09-28T02:13:36.995Z,14.97
2016-09-28T02:13:58.711Z,14.99
2016-09-28T02:14:20.433Z,15.04
2016-09-28T02:14:42.154Z,15.07
2016-09-28T02:15:03.875Z,15.04
2016-09-28T02:15:25.591Z,15.08
2016-09-28T02:15:47.312Z,15.10
2016-09-28T02:16:09.031Z,15.04
2016-09-28T02:16:30.749Z,15.04
2016-09-28T02:16:52.486Z,15.01
2016-09-28T02:17:18.977Z,15.05
2016-09-28T02:17:40.698Z,15.09
2016-09-28T02:18:02.451Z,15.05
2016-09-28T02:18:24.170Z,15.08
2016-09-28T02:18:45.895Z,15.03
2016-09-28T02:19:07.623Z,14.95
2016-09-28T02:19:29.347Z,14.93
2016-09-28T02:19:51.066Z,14.89
2016-09-28T02:20:12.788Z,14.90
2016-09-28T02:20:34.525Z,14.99
2016-09-28T02:20:56.243Z,15.05
2016-09-28T02:21:17.961Z,15.07
2016-09-28T02:21:39.687Z,14.99
2016-09-28T02:22:01.405Z,14.97
2016-09-28T02:22:23.123Z,14.96
2016-09-28T02:22:44.835Z,15.00
2016-09-28T02:23:06.540Z,15.07
2016-09-28T02:23:28.288Z,15.11
2016-09-28T02:23:50.007Z,15.09
2016-09-28T02:24:11.754Z,15.12
2016-09-28T02:24:33.475Z,15.11
2016-09-28T02:24:55.200Z,15.16
2016-09-28T02:25:16.926Z,15.14
2016-09-28T02:25:43.498Z,15.06
2016-09-28T02:26:05.221Z,15.10
2016-09-28T02:26:26.970Z,15.07
2016-09-28T02:26:48.685Z,15.10
2016-09-28T02:27:10.409Z,15.15
2016-09-28T02:27:32.122Z,15.16
2016-09-28T02:27:53.846Z,15.15
2016-09-28T02:28:15.571Z,15.11
2016-09-28T02:28:37.282Z,15.15
2016-09-28T02:28:59.011Z,15.10
2016-09-28T02:29:21.737Z,15.20
2016-09-28T02:29:43.461Z,15.19
2016-09-28T02:30:05.175Z,15.06
2016-09-28T02:30:26.892Z,15.04
2016-09-28T02:30:48.608Z,15.04
2016-09-28T02:31:10.320Z,14.93
2016-09-28T02:31:32.036Z,15.00
2016-09-28T02:31:53.827Z,14.98
2016-09-28T02:32:15.555Z,14.92
2016-09-28T02:32:37.279Z,14.93
2016-09-28T02:32:58.998Z,15.00
2016-09-28T02:33:20.791Z,15.11
2016-09-28T02:33:42.519Z,15.09
2016-09-28T02:34:04.243Z,15.06
2016-09-28T02:34:25.968Z,15.01
2016-09-28T02:34:47.693Z,15.01
2016-09-28T02:35:09.421Z,15.04
2016-09-28T02:35:31.143Z,15.00
2016-09-28T02:35:52.864Z,14.99
2016-09-28T02:36:14.585Z,14.93
2016-09-28T02:36:36.298Z,14.96
2016-09-28T02:36:58.020Z,14.98
2016-09-28T02:37:19.779Z,14.94
2016-09-28T02:37:41.501Z,14.98
2016-09-28T02:38:03.219Z,14.95
2016-09-28T02:38:25.030Z,14.93
2016-09-28T02:38:46.742Z,14.92
2016-09-28T02:39:08.468Z,14.85
2016-09-28T02:39:30.180Z,14.85
2016-09-28T02:39:51.911Z,14.86
2016-09-28T02:40:13.612Z,14.84
2016-09-28T02:40:35.337Z,14.89
2016-09-28T02:40:57.066Z,14.92
2016-09-28T02:41:23.562Z,14.90
2016-09-28T02:42:11.824Z,14.87
2016-09-28T02:42:33.545Z,14.86
2016-09-28T02:42:55.264Z,14.80
2016-09-28T02:43:16.980Z,14.89
2016-09-28T02:43:38.701Z,14.88
2016-09-28T02:44:00.419Z,14.83
2016-09-28T02:44:22.161Z,14.80
2016-09-28T02:44:43.934Z,14.76
2016-09-28T02:45:05.658Z,14.91
2016-09-28T02:45:27.377Z,14.92
2016-09-28T02:45:49.098Z,14.95
2016-09-28T02:46:10.826Z,14.99
2016-09-28T02:46:32.547Z,14.82
2016-09-28T02:46:54.266Z,14.77
2016-09-28T02:47:16.000Z,14.80
2016-09-28T02:47:37.715Z,14.77
2016-09-28T02:47:59.438Z,14.80
2016-09-28T02:48:21.165Z,14.90
2016-09-28T02:48:42.977Z,14.88
2016-09-28T02:49:04.685Z,14.82
2016-09-28T02:49:26.407Z,14.78
2016-09-28T02:49:48.138Z,14.81
2016-09-28T02:50:09.933Z,14.78
2016-09-28T02:50:31.654Z,14.79
2016-09-28T02:50:53.376Z,14.82
2016-09-28T02:51:15.095Z,14.81
2016-09-28T02:51:36.816Z,14.85
2016-09-28T02:51:58.542Z,14.83
2016-09-28T02:52:20.259Z,14.90
2016-09-28T02:52:41.985Z,14.91
2016-09-28T02:53:03.710Z,14.88
2016-09-28T02:53:25.440Z,14.83
2016-09-28T02:53:47.163Z,14.88
2016-09-28T02:54:08.887Z,14.91
2016-09-28T02:54:30.615Z,14.95
2016-09-28T02:54:52.323Z,14.96
2016-09-28T02:55:14.045Z,14.98
2016-09-28T02:55:35.773Z,14.91
2016-09-28T02:55:57.486Z,14.97
2016-09-28T02:56:19.204Z,15.09
2016-09-28T02:56:40.929Z,15.06
2016-09-28T02:57:02.654Z,15.05
2016-09-28T02:57:24.375Z,15.03
2016-09-28T02:57:46.099Z,15.00
2016-09-28T02:58:07.808Z,14.95
2016-09-28T02:58:29.539Z,15.00
2016-09-28T02:58:51.265Z,15.01
2016-09-28T02:59:13.002Z,14.99
2016-09-28T02:59:34.723Z,15.01
2016-09-28T02:59:56.455Z,15.00
2016-09-28T03:00:18.171Z,15.03
2016-09-28T03:00:39.902Z,14.93
2016-09-28T03:01:01.616Z,14.89
2016-09-28T03:01:23.332Z,14.88
2016-09-28T03:01:49.837Z,14.78
2016-09-28T03:02:11.550Z,14.83
2016-09-28T03:02:33.271Z,14.89
2016-09-28T03:02:55.003Z,14.97
2016-09-28T03:03:26.344Z,14.96
2016-09-28T03:03:49.060Z,15.03
2016-09-28T03:04:10.775Z,15.01
2016-09-28T03:04:32.500Z,15.03
2016-09-28T03:04:54.219Z,15.03
2016-09-28T03:05:15.941Z,15.00
2016-09-28T03:05:37.662Z,15.08
2016-09-28T03:05:59.387Z,15.08
2016-09-28T03:06:47.598Z,14.99
2016-09-28T03:07:09.320Z,14.95
2016-09-28T03:07:31.044Z,14.95
2016-09-28T03:07:57.537Z,14.85
2016-09-28T03:08:19.269Z,14.88
2016-09-28T03:08:40.983Z,14.90
2016-09-28T03:09:02.699Z,14.91
2016-09-28T03:09:24.420Z,14.97
2016-09-28T03:09:46.234Z,14.97
2016-09-28T03:10:07.953Z,14.98
2016-09-28T03:10:29.680Z,15.03
2016-09-28T03:10:51.402Z,15.03
2016-09-28T03:11:13.121Z,14.95
2016-09-28T03:11:34.830Z,15.03
2016-09-28T03:11:56.583Z,15.06
2016-09-28T03:12:18.328Z,15.08
2016-09-28T03:12:40.040Z,15.09
2016-09-28T03:13:01.758Z,15.04
2016-09-28T03:13:23.476Z,15.03
2016-09-28T03:13:45.195Z,15.08
2016-09-28T03:14:06.920Z,15.11
2016-09-28T03:14:28.638Z,15.14
2016-09-28T03:14:50.449Z,15.15
2016-09-28T03:15:12.164Z,15.06
2016-09-28T03:15:33.911Z,15.06
2016-09-28T03:15:55.637Z,14.92
2016-09-28T03:16:17.355Z,14.97
2016-09-28T03:16:39.083Z,15.04
2016-09-28T03:17:00.814Z,15.03
2016-09-28T03:17:22.529Z,15.00
2016-09-28T03:17:44.343Z,14.97
2016-09-28T03:18:06.059Z,15.03
2016-09-28T03:18:27.787Z,15.07
2016-09-28T03:18:49.508Z,15.02
2016-09-28T03:19:11.224Z,14.90
2016-09-28T03:19:32.942Z,14.86
2016-09-28T03:19:54.664Z,14.83
2016-09-28T03:20:16.390Z,14.89
2016-09-28T03:20:38.101Z,15.00
2016-09-28T03:20:59.831Z,15.05
2016-09-28T03:21:21.563Z,14.98
2016-09-28T03:21:43.289Z,14.96
2016-09-28T03:22:07.586Z,14.98
2016-09-28T03:22:29.317Z,14.91
2016-09-28T03:22:51.041Z,14.87
2016-09-28T03:23:12.836Z,14.89
2016-09-28T03:23:34.559Z,14.88
2016-09-28T03:23:56.283Z,14.89
2016-09-28T03:24:17.998Z,14.95
2016-09-28T03:24:39.800Z,15.00
2016-09-28T03:25:01.520Z,14.98
2016-09-28T03:25:23.237Z,14.97
2016-09-28T03:25:44.964Z,14.93
2016-09-28T03:26:28.405Z,14.91
2016-09-28T03:26:50.120Z,14.78
2016-09-28T03:27:11.902Z,14.76
2016-09-28T03:27:33.631Z,14.78
2016-09-28T03:27:55.349Z,14.75
2016-09-28T03:28:21.832Z,14.76
2016-09-28T03:28:43.554Z,14.71
2016-09-28T03:29:05.276Z,14.59
2016-09-28T03:29:26.993Z,14.59
2016-09-28T03:29:48.722Z,14.64
2016-09-28T03:30:10.447Z,14.67
2016-09-28T03:30:36.968Z,14.73
2016-09-28T03:30:58.684Z,14.83
2016-09-28T03:31:20.408Z,14.83
2016-09-28T03:31:42.121Z,14.83
2016-09-28T03:32:03.963Z,14.93
2016-09-28T03:32:25.560Z,14.98
2016-09-28T03:32:47.289Z,14.99
2016-09-28T03:33:09.010Z,15.03
2016-09-28T03:33:30.731Z,14.96
2016-09-28T03:33:52.457Z,14.89
2016-09-28T03:34:14.175Z,14.83
2016-09-28T03:34:35.913Z,14.74
2016-09-28T03:34:57.634Z,14.74
2016-09-28T03:35:19.352Z,14.71
2016-09-28T03:35:41.077Z,14.74
2016-09-28T03:36:02.804Z,14.66
2016-09-28T03:36:24.524Z,14.63
2016-09-28T03:36:46.248Z,14.57
2016-09-28T03:37:08.037Z,14.63
2016-09-28T03:37:34.537Z,14.70
2016-09-28T03:37:56.265Z,14.76
2016-09-28T03:38:17.992Z,14.72
2016-09-28T03:38:39.717Z,14.69
2016-09-28T03:39:01.442Z,14.56
2016-09-28T03:39:23.167Z,14.57
2016-09-28T03:39:44.961Z,14.58
2016-09-28T03:40:06.678Z,14.62
2016-09-28T03:40:28.406Z,14.62
2016-09-28T03:40:50.130Z,14.60
2016-09-28T03:41:11.861Z,14.62
2016-09-28T03:41:33.592Z,14.64
2016-09-28T03:41:55.308Z,14.66
2016-09-28T03:42:17.036Z,14.66
2016-09-28T03:42:38.760Z,14.65
2016-09-28T03:43:05.260Z,14.69
2016-09-28T03:43:26.991Z,14.67
2016-09-28T03:43:48.738Z,14.66
2016-09-28T03:44:10.465Z,14.67
2016-09-28T03:44:32.200Z,14.75
2016-09-28T03:44:53.935Z,14.80
2016-09-28T03:45:20.428Z,14.68
2016-09-28T03:45:42.149Z,14.64
2016-09-28T03:46:03.868Z,14.71
2016-09-28T03:46:25.589Z,14.75
2016-09-28T03:46:47.311Z,14.77
2016-09-28T03:47:09.042Z,14.79
2016-09-28T03:47:30.790Z,14.74
2016-09-28T03:47:52.514Z,14.57
2016-09-28T03:48:14.261Z,14.56
2016-09-28T03:48:35.992Z,14.60
2016-09-28T03:48:57.724Z,14.72
2016-09-28T03:49:19.455Z,14.69
2016-09-28T03:49:41.186Z,14.68
2016-09-28T03:50:02.959Z,14.65
2016-09-28T03:50:24.683Z,14.73
2016-09-28T03:50:46.405Z,14.76
2016-09-28T03:51:08.130Z,14.77
2016-09-28T03:51:29.848Z,14.76
2016-09-28T03:51:51.577Z,14.74
2016-09-28T03:52:13.298Z,14.69
2016-09-28T03:52:35.017Z,14.67
2016-09-28T03:52:56.738Z,14.68
2016-09-28T03:53:44.959Z,14.65
2016-09-28T03:54:06.680Z,14.56
2016-09-28T03:54:28.409Z,14.54
2016-09-28T03:54:50.146Z,14.61
2016-09-28T03:55:11.864Z,14.60
2016-09-28T03:55:33.594Z,14.66
2016-09-28T03:55:55.317Z,14.64
2016-09-28T03:56:17.051Z,14.69
2016-09-28T03:56:38.757Z,14.66
2016-09-28T03:57:00.482Z,14.59
2016-09-28T03:57:48.699Z,14.55
2016-09-28T03:58:10.441Z,14.50
2016-09-28T03:58:32.142Z,14.57
2016-09-28T03:58:53.858Z,14.60
2016-09-28T03:59:15.590Z,14.64
2016-09-28T03:59:37.305Z,14.63
2016-09-28T03:59:59.036Z,14.56
2016-09-28T04:00:20.758Z,14.58
2016-09-28T04:00:42.485Z,14.61
2016-09-28T04:01:04.211Z,14.63
2016-09-28T04:01:25.934Z,14.63
2016-09-28T04:01:47.740Z,14.63
2016-09-28T04:02:09.464Z,14.57
2016-09-28T04:02:31.183Z,14.52
2016-09-28T04:02:52.901Z,14.53
2016-09-28T04:03:14.619Z,14.55
2016-09-28T04:03:36.344Z,14.52
2016-09-28T04:03:58.080Z,14.50
2016-09-28T04:04:19.890Z,14.49
2016-09-28T04:04:41.621Z,14.43
2016-09-28T04:05:03.333Z,14.42
2016-09-28T04:05:25.064Z,14.37
2016-09-28T04:05:46.792Z,14.39
2016-09-28T04:06:08.517Z,14.33
2016-09-28T04:06:30.242Z,14.34
2016-09-28T04:06:52.037Z,14.40
2016-09-28T04:07:13.756Z,14.43
2016-09-28T04:07:35.470Z,14.43
2016-09-28T04:07:57.192Z,14.44
2016-09-28T04:08:18.978Z,14.43
2016-09-28T04:08:40.696Z,14.45
2016-09-28T04:09:07.212Z,14.44
2016-09-28T04:09:28.936Z,14.42
2016-09-28T04:09:50.741Z,14.40
2016-09-28T04:10:12.462Z,14.43
2016-09-28T04:10:34.187Z,14.46
2016-09-28T04:10:55.935Z,14.44
2016-09-28T04:11:17.662Z,14.45
2016-09-28T04:11:39.387Z,14.38
2016-09-28T04:12:05.887Z,14.44
2016-09-28T04:12:27.690Z,14.46
2016-09-28T04:12:49.416Z,14.42
2016-09-28T04:13:11.141Z,14.40
2016-09-28T04:13:32.865Z,14.34
2016-09-28T04:13:54.586Z,14.24
2016-09-28T04:14:16.312Z,14.26
2016-09-28T04:14:42.811Z,14.24
2016-09-28T04:15:04.565Z,14.32
2016-09-28T04:15:26.293Z,14.29
2016-09-28T04:15:48.022Z,14.40
2016-09-28T04:16:09.742Z,14.44
2016-09-28T04:16:31.451Z,14.44
2016-09-28T04:16:53.172Z,14.44
2016-09-28T04:17:14.904Z,14.43
2016-09-28T04:17:36.629Z,14.37
2016-09-28T04:17:58.348Z,14.46
2016-09-28T04:18:20.072Z,14.38
2016-09-28T04:18:41.801Z,14.31
2016-09-28T04:19:03.519Z,14.37
2016-09-28T04:19:26.239Z,14.36
2016-09-28T04:19:47.958Z,14.37
2016-09-28T04:20:09.729Z,14.34
2016-09-28T04:20:31.451Z,14.30
2016-09-28T04:20:53.168Z,14.34
2016-09-28T04:21:14.907Z,14.37
2016-09-28T04:21:36.629Z,14.42
2016-09-28T04:21:58.357Z,14.31
2016-09-28T04:22:20.082Z,14.28
2016-09-28T04:22:41.838Z,14.36
2016-09-28T04:23:03.583Z,14.36
2016-09-28T04:23:25.311Z,14.34
2016-09-28T04:23:47.029Z,14.34
2016-09-28T04:24:08.744Z,14.36
2016-09-28T04:24:30.459Z,14.38
2016-09-28T04:24:56.962Z,14.33
2016-09-28T04:25:18.701Z,14.31
2016-09-28T04:25:40.410Z,14.33
2016-09-28T04:26:02.136Z,14.24
2016-09-28T04:26:23.937Z,14.21
2016-09-28T04:26:45.650Z,14.19
2016-09-28T04:27:07.380Z,14.17
2016-09-28T04:27:29.106Z,14.20
2016-09-28T04:27:50.831Z,14.22
2016-09-28T04:28:12.553Z,14.16
2016-09-28T04:28:34.273Z,14.12
2016-09-28T04:28:56.005Z,14.07
2016-09-28T04:29:17.733Z,14.07
2016-09-28T04:29:39.458Z,14.10
2016-09-28T04:30:01.186Z,14.12
2016-09-28T04:30:22.898Z,14.13
2016-09-28T04:30:44.623Z,14.10
2016-09-28T04:31:06.367Z,14.05
2016-09-28T04:31:28.095Z,14.15
2016-09-28T04:31:49.832Z,14.20
2016-09-28T04:32:11.560Z,14.18
2016-09-28T04:32:33.289Z,14.13
2016-09-28T04:32:59.775Z,14.17
2016-09-28T04:33:21.502Z,14.22
2016-09-28T04:33:43.224Z,14.24
2016-09-28T04:34:04.995Z,14.22
2016-09-28T04:34:26.714Z,14.22
2016-09-28T04:34:48.434Z,14.18
2016-09-28T04:35:10.162Z,14.15
2016-09-28T04:35:31.886Z,14.18
2016-09-28T04:35:53.619Z,14.22
2016-09-28T04:36:15.340Z,14.07
2016-09-28T04:36:37.064Z,14.05
2016-09-28T04:36:58.789Z,14.03
2016-09-28T04:37:20.514Z,13.85
2016-09-28T04:37:42.300Z,13.85
2016-09-28T04:38:04.036Z,13.84
2016-09-28T04:38:25.765Z,14.01
2016-09-28T04:38:57.103Z,13.95
2016-09-28T04:39:18.828Z,13.99
2016-09-28T04:39:40.553Z,14.01
2016-09-28T04:40:02.287Z,13.98
2016-09-28T04:40:33.545Z,14.04
2016-09-28T04:40:55.254Z,14.01
2016-09-28T04:41:16.978Z,14.01
2016-09-28T04:41:38.710Z,14.02
2016-09-28T04:42:00.435Z,14.03
2016-09-28T04:42:22.159Z,14.06
2016-09-28T04:42:43.977Z,13.99
2016-09-28T04:43:05.699Z,13.98
2016-09-28T04:43:27.413Z,13.95
2016-09-28T04:43:49.136Z,13.96
2016-09-28T04:44:10.856Z,13.95
2016-09-28T04:44:32.584Z,13.96
2016-09-28T04:44:54.313Z,14.06
2016-09-28T04:45:16.075Z,14.10
2016-09-28T04:45:37.801Z,14.15